Lake Charles/Chennault AFB, Louisiana
Current Conditions -  °F | °C
As of 1:55 AM on Monday 24 Nov 2014 (Local Time) from KCWF Reporting Station
Clear Clear  
Wind Chill: 65°   Ceiling: Unl
Heat Index: 65°   Visibility: 10mi
Dew Point: 61°   Wind: 12mph
Humidity: 85%   Direction: 270°W
Pressure: 29.74"   Gusts: NA
Location:  30.22°N, 93.15°W
Report Text: KCWF 240755Z AUTO 27010KT 10SM CLR 18/16 A2974 RMK AO2 T01850160
Loading
Personal Weather Stations






























Interactive Weather Map New forecast layout! Learn more

10-Day Weather Forecast

Advertisements
Track Severe Weather on mobile